sensor_id;sensor_type;location;lat;lon;timestamp;P1;durP1;ratioP1;P2;durP2;ratioP2
20423;SDS011;10371;49.042;8.002;2024-01-16T00:00:50;7.67;;;5.97;;
20423;SDS011;10371;49.042;8.002;2024-01-16T00:01:50;7.03;;;5.67;;
20423;SDS011;10371;49.042;8.002;2024-01-16T00:02:51;7.20;;;5.27;;
20423;SDS011;10371;49.042;8.002;2024-01-16T00:03:51;8.13;;;5.70;;
20423;SDS011;10371;49.042;8.002;2024-01-16T00:04:52;8.57;;;5.97;;
20423;SDS011;10371;49.042;8.002;2024-01-16T00:05:52;7.80;;;5.90;;
20423;SDS011;10371;49.042;8.002;2024-01-16T00:06:52;9.27;;;6.20;;
20423;SDS011;10371;49.042;8.002;2024-01-16T00:07:53;7.77;;;5.90;;
20423;SDS011;10371;49.042;8.002;2024-01-16T00:08:53;8.90;;;6.70;;
20423;SDS011;10371;49.042;8.002;2024-01-16T00:09:53;7.60;;;5.67;;
20423;SDS011;10371;49.042;8.002;2024-01-16T00:10:54;7.47;;;6.20;;
20423;SDS011;10371;49.042;8.002;2024-01-16T00:11:54;6.00;;;5.37;;
20423;SDS011;10371;49.042;8.002;2024-01-16T00:12:54;7.07;;;5.73;;
20423;SDS011;10371;49.042;8.002;2024-01-16T00:13:55;8.23;;;5.47;;
20423;SDS011;10371;49.042;8.002;2024-01-16T00:14:55;8.47;;;5.67;;
20423;SDS011;10371;49.042;8.002;2024-01-16T00:15:55;8.90;;;6.17;;
20423;SDS011;10371;49.042;8.002;2024-01-16T00:16:58;6.37;;;5.47;;
20423;SDS011;10371;49.042;8.002;2024-01-16T00:17:59;6.80;;;5.30;;
20423;SDS011;10371;49.042;8.002;2024-01-16T00:18:59;8.37;;;6.07;;
20423;SDS011;10371;49.042;8.002;2024-01-16T00:19:59;7.23;;;5.50;;
20423;SDS011;10371;49.042;8.002;2024-01-16T00:21:01;7.77;;;4.83;;
20423;SDS011;10371;49.042;8.002;2024-01-16T00:22:02;7.13;;;5.37;;
20423;SDS011;10371;49.042;8.002;2024-01-16T00:23:04;6.80;;;5.60;;
20423;SDS011;10371;49.042;8.002;2024-01-16T00:24:05;6.43;;;5.33;;
20423;SDS011;10371;49.042;8.002;2024-01-16T00:25:05;5.93;;;5.33;;
20423;SDS011;10371;49.042;8.002;2024-01-16T00:26:06;7.47;;;5.27;;
20423;SDS011;10371;49.042;8.002;2024-01-16T00:27:06;8.43;;;5.43;;
20423;SDS011;10371;49.042;8.002;2024-01-16T00:28:06;7.00;;;5.67;;
20423;SDS011;10371;49.042;8.002;2024-01-16T00:29:07;8.00;;;5.40;;
20423;SDS011;10371;49.042;8.002;2024-01-16T00:30:09;6.00;;;5.40;;
20423;SDS011;10371;49.042;8.002;2024-01-16T00:31:09;8.00;;;5.10;;
20423;SDS011;10371;49.042;8.002;2024-01-16T00:32:10;6.13;;;5.33;;
20423;SDS011;10371;49.042;8.002;2024-01-16T00:33:10;7.77;;;5.20;;
20423;SDS011;10371;49.042;8.002;2024-01-16T00:34:12;5.83;;;5.10;;
20423;SDS011;10371;49.042;8.002;2024-01-16T00:35:12;6.40;;;5.10;;
20423;SDS011;10371;49.042;8.002;2024-01-16T00:36:13;6.47;;;5.10;;
20423;SDS011;10371;49.042;8.002;2024-01-16T00:37:13;5.37;;;4.87;;
20423;SDS011;10371;49.042;8.002;2024-01-16T00:38:13;6.03;;;5.33;;
20423;SDS011;10371;49.042;8.002;2024-01-16T00:39:14;9.30;;;5.57;;
20423;SDS011;10371;49.042;8.002;2024-01-16T00:40:14;7.53;;;5.03;;
20423;SDS011;10371;49.042;8.002;2024-01-16T00:41:14;6.43;;;5.43;;
20423;SDS011;10371;49.042;8.002;2024-01-16T00:42:15;6.97;;;5.50;;
20423;SDS011;10371;49.042;8.002;2024-01-16T00:43:15;7.97;;;5.37;;
20423;SDS011;10371;49.042;8.002;2024-01-16T00:44:15;5.93;;;5.10;;
20423;SDS011;10371;49.042;8.002;2024-01-16T00:45:15;6.20;;;5.37;;
20423;SDS011;10371;49.042;8.002;2024-01-16T00:46:17;7.83;;;5.47;;
20423;SDS011;10371;49.042;8.002;2024-01-16T00:47:17;6.40;;;5.40;;
20423;SDS011;10371;49.042;8.002;2024-01-16T00:48:17;5.63;;;4.90;;
20423;SDS011;10371;49.042;8.002;2024-01-16T00:49:19;5.90;;;5.10;;
20423;SDS011;10371;49.042;8.002;2024-01-16T00:50:20;7.30;;;5.37;;
20423;SDS011;10371;49.042;8.002;2024-01-16T00:51:20;6.17;;;5.27;;
20423;SDS011;10371;49.042;8.002;2024-01-16T00:52:20;6.47;;;4.70;;
20423;SDS011;10371;49.042;8.002;2024-01-16T00:53:20;6.20;;;5.50;;
20423;SDS011;10371;49.042;8.002;2024-01-16T00:54:21;7.47;;;5.67;;
20423;SDS011;10371;49.042;8.002;2024-01-16T00:55:21;5.80;;;5.30;;
20423;SDS011;10371;49.042;8.002;2024-01-16T00:56:21;8.50;;;5.57;;
20423;SDS011;10371;49.042;8.002;2024-01-16T00:57:21;6.90;;;5.50;;
20423;SDS011;10371;49.042;8.002;2024-01-16T00:58:22;6.33;;;5.07;;
20423;SDS011;10371;49.042;8.002;2024-01-16T00:59:23;6.23;;;5.50;;
20423;SDS011;10371;49.042;8.002;2024-01-16T01:00:23;5.57;;;4.90;;
20423;SDS011;10371;49.042;8.002;2024-01-16T01:01:23;6.43;;;5.30;;
20423;SDS011;10371;49.042;8.002;2024-01-16T01:02:23;6.90;;;5.47;;
20423;SDS011;10371;49.042;8.002;2024-01-16T01:03:23;6.70;;;5.17;;
20423;SDS011;10371;49.042;8.002;2024-01-16T01:04:24;5.80;;;5.20;;
20423;SDS011;10371;49.042;8.002;2024-01-16T01:05:24;8.17;;;5.27;;
20423;SDS011;10371;49.042;8.002;2024-01-16T01:06:28;7.47;;;5.97;;
20423;SDS011;10371;49.042;8.002;2024-01-16T01:07:28;6.20;;;5.60;;
20423;SDS011;10371;49.042;8.002;2024-01-16T01:08:28;8.50;;;6.60;;
20423;SDS011;10371;49.042;8.002;2024-01-16T01:09:29;9.10;;;6.73;;
20423;SDS011;10371;49.042;8.002;2024-01-16T01:10:29;8.53;;;7.13;;
20423;SDS011;10371;49.042;8.002;2024-01-16T01:11:29;9.70;;;8.17;;
20423;SDS011;10371;49.042;8.002;2024-01-16T01:12:30;12.33;;;8.90;;
20423;SDS011;10371;49.042;8.002;2024-01-16T01:13:30;9.70;;;7.83;;
20423;SDS011;10371;49.042;8.002;2024-01-16T01:14:30;10.40;;;7.83;;
20423;SDS011;10371;49.042;8.002;2024-01-16T01:15:31;10.60;;;8.17;;
20423;SDS011;10371;49.042;8.002;2024-01-16T01:16:31;10.63;;;8.17;;
20423;SDS011;10371;49.042;8.002;2024-01-16T01:17:31;9.20;;;8.13;;
20423;SDS011;10371;49.042;8.002;2024-01-16T01:18:32;9.40;;;7.30;;
20423;SDS011;10371;49.042;8.002;2024-01-16T01:19:32;9.07;;;7.77;;
20423;SDS011;10371;49.042;8.002;2024-01-16T01:20:32;7.93;;;7.07;;
20423;SDS011;10371;49.042;8.002;2024-01-16T01:21:32;9.50;;;7.40;;
20423;SDS011;10371;49.042;8.002;2024-01-16T01:22:33;9.33;;;7.73;;
20423;SDS011;10371;49.042;8.002;2024-01-16T01:23:33;9.07;;;6.80;;
20423;SDS011;10371;49.042;8.002;2024-01-16T01:24:33;8.43;;;7.23;;
20423;SDS011;10371;49.042;8.002;2024-01-16T01:25:34;9.30;;;7.60;;
20423;SDS011;10371;49.042;8.002;2024-01-16T01:26:34;8.93;;;7.33;;
20423;SDS011;10371;49.042;8.002;2024-01-16T01:27:35;10.03;;;7.43;;
20423;SDS011;10371;49.042;8.002;2024-01-16T01:28:35;8.20;;;7.37;;
20423;SDS011;10371;49.042;8.002;2024-01-16T01:29:36;9.10;;;7.30;;
20423;SDS011;10371;49.042;8.002;2024-01-16T01:30:36;8.50;;;7.60;;
20423;SDS011;10371;49.042;8.002;2024-01-16T01:31:36;8.23;;;7.30;;
20423;SDS011;10371;49.042;8.002;2024-01-16T01:32:37;10.13;;;7.77;;
20423;SDS011;10371;49.042;8.002;2024-01-16T01:33:38;8.37;;;7.57;;
20423;SDS011;10371;49.042;8.002;2024-01-16T01:34:41;9.73;;;7.83;;
20423;SDS011;10371;49.042;8.002;2024-01-16T01:35:42;8.80;;;7.80;;
20423;SDS011;10371;49.042;8.002;2024-01-16T01:36:42;10.30;;;7.93;;
20423;SDS011;10371;49.042;8.002;2024-01-16T01:37:43;9.43;;;7.73;;
20423;SDS011;10371;49.042;8.002;2024-01-16T01:38:43;9.73;;;7.77;;
20423;SDS011;10371;49.042;8.002;2024-01-16T01:39:43;8.90;;;7.63;;
20423;SDS011;10371;49.042;8.002;2024-01-16T01:40:43;10.13;;;7.73;;
20423;SDS011;10371;49.042;8.002;2024-01-16T01:41:44;8.93;;;7.67;;
20423;SDS011;10371;49.042;8.002;2024-01-16T01:42:44;8.63;;;7.03;;
20423;SDS011;10371;49.042;8.002;2024-01-16T01:43:44;9.63;;;7.80;;
20423;SDS011;10371;49.042;8.002;2024-01-16T01:44:45;9.17;;;7.23;;
20423;SDS011;10371;49.042;8.002;2024-01-16T01:45:53;8.83;;;7.30;;
20423;SDS011;10371;49.042;8.002;2024-01-16T01:47:09;9.33;;;7.40;;
20423;SDS011;10371;49.042;8.002;2024-01-16T01:48:09;9.10;;;7.53;;
20423;SDS011;10371;49.042;8.002;2024-01-16T01:49:11;9.17;;;7.53;;
20423;SDS011;10371;49.042;8.002;2024-01-16T01:50:13;10.40;;;7.33;;
20423;SDS011;10371;49.042;8.002;2024-01-16T01:51:14;9.47;;;7.37;;
20423;SDS011;10371;49.042;8.002;2024-01-16T01:52:17;9.83;;;8.17;;
20423;SDS011;10371;49.042;8.002;2024-01-16T01:53:18;8.93;;;7.67;;
20423;SDS011;10371;49.042;8.002;2024-01-16T01:54:18;9.03;;;7.27;;
20423;SDS011;10371;49.042;8.002;2024-01-16T01:55:19;8.60;;;7.63;;
20423;SDS011;10371;49.042;8.002;2024-01-16T01:56:20;9.00;;;7.47;;
20423;SDS011;10371;49.042;8.002;2024-01-16T01:57:20;9.83;;;7.70;;
20423;SDS011;10371;49.042;8.002;2024-01-16T01:58:21;8.37;;;7.43;;
20423;SDS011;10371;49.042;8.002;2024-01-16T01:59:21;7.80;;;7.07;;
20423;SDS011;10371;49.042;8.002;2024-01-16T02:00:23;9.53;;;7.43;;
20423;SDS011;10371;49.042;8.002;2024-01-16T02:01:23;12.40;;;8.77;;
20423;SDS011;10371;49.042;8.002;2024-01-16T02:02:25;10.40;;;7.53;;
20423;SDS011;10371;49.042;8.002;2024-01-16T02:03:27;8.70;;;7.80;;
20423;SDS011;10371;49.042;8.002;2024-01-16T02:04:29;8.97;;;7.90;;
20423;SDS011;10371;49.042;8.002;2024-01-16T02:05:31;9.93;;;7.83;;
20423;SDS011;10371;49.042;8.002;2024-01-16T02:06:33;9.60;;;7.80;;
20423;SDS011;10371;49.042;8.002;2024-01-16T02:07:33;8.43;;;7.53;;
20423;SDS011;10371;49.042;8.002;2024-01-16T02:08:34;8.83;;;7.30;;
20423;SDS011;10371;49.042;8.002;2024-01-16T02:09:35;10.77;;;7.90;;
20423;SDS011;10371;49.042;8.002;2024-01-16T02:10:36;9.30;;;7.57;;
20423;SDS011;10371;49.042;8.002;2024-01-16T02:11:40;9.00;;;6.97;;
20423;SDS011;10371;49.042;8.002;2024-01-16T02:12:41;9.23;;;8.17;;
20423;SDS011;10371;49.042;8.002;2024-01-16T02:13:41;12.13;;;8.90;;
20423;SDS011;10371;49.042;8.002;2024-01-16T02:14:41;10.73;;;8.20;;
20423;SDS011;10371;49.042;8.002;2024-01-16T02:15:42;11.63;;;8.73;;
20423;SDS011;10371;49.042;8.002;2024-01-16T02:16:42;9.70;;;7.83;;
20423;SDS011;10371;49.042;8.002;2024-01-16T02:17:44;8.70;;;7.53;;
20423;SDS011;10371;49.042;8.002;2024-01-16T02:18:47;9.53;;;7.57;;
20423;SDS011;10371;49.042;8.002;2024-01-16T02:19:48;10.17;;;7.50;;
20423;SDS011;10371;49.042;8.002;2024-01-16T02:20:48;9.33;;;7.57;;
20423;SDS011;10371;49.042;8.002;2024-01-16T02:21:49;9.83;;;8.23;;
20423;SDS011;10371;49.042;8.002;2024-01-16T02:22:52;10.57;;;7.97;;
20423;SDS011;10371;49.042;8.002;2024-01-16T02:23:56;10.23;;;7.57;;
20423;SDS011;10371;49.042;8.002;2024-01-16T02:24:56;9.37;;;7.30;;
20423;SDS011;10371;49.042;8.002;2024-01-16T02:25:57;9.03;;;7.37;;
20423;SDS011;10371;49.042;8.002;2024-01-16T02:26:57;8.83;;;7.33;;
20423;SDS011;10371;49.042;8.002;2024-01-16T02:27:59;9.33;;;7.90;;
20423;SDS011;10371;49.042;8.002;2024-01-16T02:29:00;9.07;;;7.40;;
20423;SDS011;10371;49.042;8.002;2024-01-16T02:30:02;8.43;;;7.20;;
20423;SDS011;10371;49.042;8.002;2024-01-16T02:31:03;10.63;;;8.23;;
20423;SDS011;10371;49.042;8.002;2024-01-16T02:32:03;10.70;;;7.97;;
20423;SDS011;10371;49.042;8.002;2024-01-16T02:33:04;11.07;;;7.73;;
20423;SDS011;10371;49.042;8.002;2024-01-16T02:34:04;10.13;;;7.97;;
20423;SDS011;10371;49.042;8.002;2024-01-16T02:35:05;11.33;;;7.60;;
20423;SDS011;10371;49.042;8.002;2024-01-16T02:36:05;9.50;;;7.53;;
20423;SDS011;10371;49.042;8.002;2024-01-16T02:37:05;8.60;;;7.70;;
20423;SDS011;10371;49.042;8.002;2024-01-16T02:38:06;8.83;;;7.33;;
20423;SDS011;10371;49.042;8.002;2024-01-16T02:39:06;8.60;;;7.67;;
20423;SDS011;10371;49.042;8.002;2024-01-16T02:40:06;8.73;;;7.40;;
20423;SDS011;10371;49.042;8.002;2024-01-16T02:41:07;8.83;;;7.30;;
20423;SDS011;10371;49.042;8.002;2024-01-16T02:42:07;9.17;;;7.90;;
20423;SDS011;10371;49.042;8.002;2024-01-16T02:43:08;9.40;;;7.43;;
20423;SDS011;10371;49.042;8.002;2024-01-16T02:44:08;9.33;;;7.90;;
20423;SDS011;10371;49.042;8.002;2024-01-16T02:45:08;8.20;;;7.30;;
20423;SDS011;10371;49.042;8.002;2024-01-16T02:46:09;9.23;;;7.90;;
20423;SDS011;10371;49.042;8.002;2024-01-16T02:47:09;9.67;;;7.63;;
20423;SDS011;10371;49.042;8.002;2024-01-16T02:48:10;8.70;;;7.70;;
20423;SDS011;10371;49.042;8.002;2024-01-16T02:49:11;8.87;;;7.30;;
20423;SDS011;10371;49.042;8.002;2024-01-16T02:50:11;9.53;;;7.77;;
20423;SDS011;10371;49.042;8.002;2024-01-16T02:51:12;8.33;;;7.40;;
20423;SDS011;10371;49.042;8.002;2024-01-16T02:52:12;8.10;;;7.10;;
20423;SDS011;10371;49.042;8.002;2024-01-16T02:53:13;8.97;;;7.60;;
20423;SDS011;10371;49.042;8.002;2024-01-16T02:54:13;9.43;;;7.33;;
20423;SDS011;10371;49.042;8.002;2024-01-16T02:55:14;9.30;;;8.00;;
20423;SDS011;10371;49.042;8.002;2024-01-16T02:56:14;8.60;;;7.60;;
20423;SDS011;10371;49.042;8.002;2024-01-16T02:57:14;9.63;;;7.43;;
20423;SDS011;10371;49.042;8.002;2024-01-16T02:58:15;8.97;;;7.50;;
20423;SDS011;10371;49.042;8.002;2024-01-16T02:59:15;9.97;;;7.60;;
20423;SDS011;10371;49.042;8.002;2024-01-16T03:00:16;8.43;;;7.23;;
20423;SDS011;10371;49.042;8.002;2024-01-16T03:01:17;8.17;;;6.80;;
20423;SDS011;10371;49.042;8.002;2024-01-16T03:02:17;8.83;;;7.27;;
20423;SDS011;10371;49.042;8.002;2024-01-16T03:03:18;10.87;;;8.27;;
20423;SDS011;10371;49.042;8.002;2024-01-16T03:04:19;8.47;;;7.30;;
20423;SDS011;10371;49.042;8.002;2024-01-16T03:05:19;10.17;;;7.63;;
20423;SDS011;10371;49.042;8.002;2024-01-16T03:06:23;8.57;;;7.50;;
20423;SDS011;10371;49.042;8.002;2024-01-16T03:07:24;9.47;;;7.43;;
20423;SDS011;10371;49.042;8.002;2024-01-16T03:08:24;8.90;;;7.60;;
20423;SDS011;10371;49.042;8.002;2024-01-16T03:09:25;8.57;;;7.23;;
20423;SDS011;10371;49.042;8.002;2024-01-16T03:10:25;9.60;;;7.57;;
20423;SDS011;10371;49.042;8.002;2024-01-16T03:11:26;8.37;;;7.40;;
20423;SDS011;10371;49.042;8.002;2024-01-16T03:12:26;9.30;;;7.20;;
20423;SDS011;10371;49.042;8.002;2024-01-16T03:13:27;8.90;;;7.63;;
20423;SDS011;10371;49.042;8.002;2024-01-16T03:14:27;8.97;;;7.37;;
20423;SDS011;10371;49.042;8.002;2024-01-16T03:15:28;7.83;;;7.03;;
20423;SDS011;10371;49.042;8.002;2024-01-16T03:16:31;8.47;;;7.57;;
20423;SDS011;10371;49.042;8.002;2024-01-16T03:17:31;9.50;;;7.10;;
20423;SDS011;10371;49.042;8.002;2024-01-16T03:18:32;8.60;;;6.90;;
20423;SDS011;10371;49.042;8.002;2024-01-16T03:19:32;9.67;;;7.50;;
20423;SDS011;10371;49.042;8.002;2024-01-16T03:20:32;7.60;;;6.77;;
20423;SDS011;10371;49.042;8.002;2024-01-16T03:21:32;8.10;;;6.93;;
20423;SDS011;10371;49.042;8.002;2024-01-16T03:22:33;7.63;;;6.83;;
20423;SDS011;10371;49.042;8.002;2024-01-16T03:23:33;10.13;;;7.40;;
20423;SDS011;10371;49.042;8.002;2024-01-16T03:24:34;7.50;;;6.33;;
20423;SDS011;10371;49.042;8.002;2024-01-16T03:25:34;8.63;;;6.80;;
20423;SDS011;10371;49.042;8.002;2024-01-16T03:26:38;8.90;;;6.53;;
20423;SDS011;10371;49.042;8.002;2024-01-16T03:27:38;10.03;;;7.23;;
20423;SDS011;10371;49.042;8.002;2024-01-16T03:28:39;8.50;;;6.70;;
20423;SDS011;10371;49.042;8.002;2024-01-16T03:29:40;7.00;;;6.07;;
20423;SDS011;10371;49.042;8.002;2024-01-16T03:30:40;7.53;;;6.23;;
20423;SDS011;10371;49.042;8.002;2024-01-16T03:31:40;9.37;;;6.53;;
20423;SDS011;10371;49.042;8.002;2024-01-16T03:32:40;8.60;;;6.57;;
20423;SDS011;10371;49.042;8.002;2024-01-16T03:33:41;9.93;;;6.70;;
20423;SDS011;10371;49.042;8.002;2024-01-16T03:34:42;7.43;;;6.50;;
20423;SDS011;10371;49.042;8.002;2024-01-16T03:35:42;7.50;;;6.27;;
20423;SDS011;10371;49.042;8.002;2024-01-16T03:36:42;8.43;;;6.27;;
20423;SDS011;10371;49.042;8.002;2024-01-16T03:37:42;7.07;;;5.67;;
20423;SDS011;10371;49.042;8.002;2024-01-16T03:38:43;7.23;;;5.70;;
20423;SDS011;10371;49.042;8.002;2024-01-16T03:39:43;7.70;;;6.27;;
20423;SDS011;10371;49.042;8.002;2024-01-16T03:40:45;6.63;;;5.73;;
20423;SDS011;10371;49.042;8.002;2024-01-16T03:41:45;8.23;;;6.30;;
20423;SDS011;10371;49.042;8.002;2024-01-16T03:42:45;6.40;;;5.43;;
20423;SDS011;10371;49.042;8.002;2024-01-16T03:43:45;7.67;;;6.10;;
20423;SDS011;10371;49.042;8.002;2024-01-16T03:44:46;8.00;;;6.10;;
20423;SDS011;10371;49.042;8.002;2024-01-16T03:45:46;6.37;;;5.60;;
20423;SDS011;10371;49.042;8.002;2024-01-16T03:46:46;7.63;;;6.20;;
20423;SDS011;10371;49.042;8.002;2024-01-16T03:47:46;6.97;;;5.63;;
20423;SDS011;10371;49.042;8.002;2024-01-16T03:48:47;7.97;;;5.40;;
20423;SDS011;10371;49.042;8.002;2024-01-16T03:49:47;6.03;;;5.43;;
20423;SDS011;10371;49.042;8.002;2024-01-16T03:50:47;6.40;;;5.63;;
20423;SDS011;10371;49.042;8.002;2024-01-16T03:51:48;6.00;;;5.40;;
20423;SDS011;10371;49.042;8.002;2024-01-16T03:52:48;6.03;;;5.37;;
20423;SDS011;10371;49.042;8.002;2024-01-16T03:53:48;8.13;;;5.80;;
20423;SDS011;10371;49.042;8.002;2024-01-16T03:54:48;7.97;;;5.93;;
20423;SDS011;10371;49.042;8.002;2024-01-16T03:55:49;5.83;;;5.17;;
20423;SDS011;10371;49.042;8.002;2024-01-16T03:56:52;7.60;;;6.23;;
20423;SDS011;10371;49.042;8.002;2024-01-16T03:57:53;6.60;;;5.53;;
20423;SDS011;10371;49.042;8.002;2024-01-16T03:58:53;6.43;;;5.50;;
20423;SDS011;10371;49.042;8.002;2024-01-16T03:59:54;7.33;;;5.73;;
20423;SDS011;10371;49.042;8.002;2024-01-16T04:00:54;6.90;;;5.60;;
20423;SDS011;10371;49.042;8.002;2024-01-16T04:01:54;6.67;;;5.70;;
20423;SDS011;10371;49.042;8.002;2024-01-16T04:02:55;7.53;;;6.37;;
20423;SDS011;10371;49.042;8.002;2024-01-16T04:03:55;8.47;;;6.00;;
20423;SDS011;10371;49.042;8.002;2024-01-16T04:04:55;7.67;;;6.17;;
20423;SDS011;10371;49.042;8.002;2024-01-16T04:05:55;8.17;;;6.47;;
20423;SDS011;10371;49.042;8.002;2024-01-16T04:06:56;8.00;;;6.67;;
20423;SDS011;10371;49.042;8.002;2024-01-16T04:07:56;12.30;;;7.00;;
20423;SDS011;10371;49.042;8.002;2024-01-16T04:08:57;8.10;;;6.20;;
20423;SDS011;10371;49.042;8.002;2024-01-16T04:09:57;9.30;;;6.53;;
20423;SDS011;10371;49.042;8.002;2024-01-16T04:10:57;8.50;;;6.33;;
20423;SDS011;10371;49.042;8.002;2024-01-16T04:11:57;8.77;;;6.70;;
20423;SDS011;10371;49.042;8.002;2024-01-16T04:13:00;9.43;;;7.13;;
20423;SDS011;10371;49.042;8.002;2024-01-16T04:14:01;10.40;;;6.77;;
20423;SDS011;10371;49.042;8.002;2024-01-16T04:15:01;7.50;;;6.77;;
20423;SDS011;10371;49.042;8.002;2024-01-16T04:16:02;11.60;;;7.33;;
20423;SDS011;10371;49.042;8.002;2024-01-16T04:17:02;10.30;;;7.87;;
20423;SDS011;10371;49.042;8.002;2024-01-16T04:18:03;10.13;;;7.90;;
20423;SDS011;10371;49.042;8.002;2024-01-16T04:19:03;9.73;;;8.30;;
20423;SDS011;10371;49.042;8.002;2024-01-16T04:20:04;10.83;;;8.23;;
20423;SDS011;10371;49.042;8.002;2024-01-16T04:21:06;10.77;;;7.83;;
20423;SDS011;10371;49.042;8.002;2024-01-16T04:22:07;13.67;;;7.70;;
20423;SDS011;10371;49.042;8.002;2024-01-16T04:23:07;11.87;;;7.73;;
20423;SDS011;10371;49.042;8.002;2024-01-16T04:24:07;9.63;;;7.50;;
20423;SDS011;10371;49.042;8.002;2024-01-16T04:25:07;9.53;;;7.37;;
20423;SDS011;10371;49.042;8.002;2024-01-16T04:26:08;9.97;;;8.00;;
20423;SDS011;10371;49.042;8.002;2024-01-16T04:27:09;9.00;;;7.00;;
20423;SDS011;10371;49.042;8.002;2024-01-16T04:28:10;9.87;;;7.63;;
20423;SDS011;10371;49.042;8.002;2024-01-16T04:29:10;12.47;;;8.07;;
20423;SDS011;10371;49.042;8.002;2024-01-16T04:30:12;11.03;;;8.70;;
20423;SDS011;10371;49.042;8.002;2024-01-16T04:31:13;10.37;;;8.47;;
20423;SDS011;10371;49.042;8.002;2024-01-16T04:32:13;9.77;;;7.67;;
20423;SDS011;10371;49.042;8.002;2024-01-16T04:33:13;13.60;;;8.70;;
20423;SDS011;10371;49.042;8.002;2024-01-16T04:34:13;10.53;;;8.63;;
20423;SDS011;10371;49.042;8.002;2024-01-16T04:35:14;10.70;;;8.27;;
20423;SDS011;10371;49.042;8.002;2024-01-16T04:36:14;10.93;;;8.60;;
20423;SDS011;10371;49.042;8.002;2024-01-16T04:37:15;12.67;;;8.90;;
20423;SDS011;10371;49.042;8.002;2024-01-16T04:38:15;12.33;;;8.50;;
20423;SDS011;10371;49.042;8.002;2024-01-16T04:39:15;11.57;;;7.83;;
20423;SDS011;10371;49.042;8.002;2024-01-16T04:40:16;13.77;;;8.10;;
20423;SDS011;10371;49.042;8.002;2024-01-16T04:41:17;10.33;;;7.70;;
20423;SDS011;10371;49.042;8.002;2024-01-16T04:42:19;9.90;;;8.47;;
20423;SDS011;10371;49.042;8.002;2024-01-16T04:43:19;10.83;;;8.27;;
20423;SDS011;10371;49.042;8.002;2024-01-16T04:44:19;10.03;;;8.40;;
20423;SDS011;10371;49.042;8.002;2024-01-16T04:45:19;9.00;;;7.53;;
20423;SDS011;10371;49.042;8.002;2024-01-16T04:46:20;9.67;;;7.93;;
20423;SDS011;10371;49.042;8.002;2024-01-16T04:47:20;11.57;;;7.43;;
20423;SDS011;10371;49.042;8.002;2024-01-16T04:48:20;9.53;;;7.27;;
20423;SDS011;10371;49.042;8.002;2024-01-16T04:49:20;8.57;;;7.37;;
20423;SDS011;10371;49.042;8.002;2024-01-16T04:50:21;8.07;;;6.90;;
20423;SDS011;10371;49.042;8.002;2024-01-16T04:51:21;10.53;;;7.40;;
20423;SDS011;10371;49.042;8.002;2024-01-16T04:52:21;9.60;;;8.00;;
20423;SDS011;10371;49.042;8.002;2024-01-16T04:53:22;15.20;;;10.00;;
20423;SDS011;10371;49.042;8.002;2024-01-16T04:54:22;14.70;;;10.30;;
20423;SDS011;10371;49.042;8.002;2024-01-16T04:55:22;14.40;;;10.17;;
20423;SDS011;10371;49.042;8.002;2024-01-16T04:56:22;13.73;;;10.30;;
20423;SDS011;10371;49.042;8.002;2024-01-16T04:57:23;10.53;;;8.67;;
20423;SDS011;10371;49.042;8.002;2024-01-16T04:58:23;14.13;;;8.23;;
20423;SDS011;10371;49.042;8.002;2024-01-16T04:59:23;9.47;;;7.97;;
20423;SDS011;10371;49.042;8.002;2024-01-16T05:00:23;11.07;;;8.40;;
20423;SDS011;10371;49.042;8.002;2024-01-16T05:01:24;9.87;;;7.57;;
20423;SDS011;10371;49.042;8.002;2024-01-16T05:02:25;8.83;;;7.57;;
20423;SDS011;10371;49.042;8.002;2024-01-16T05:03:25;9.57;;;7.50;;
20423;SDS011;10371;49.042;8.002;2024-01-16T05:04:25;8.77;;;7.83;;
20423;SDS011;10371;49.042;8.002;2024-01-16T05:05:26;12.03;;;8.17;;
20423;SDS011;10371;49.042;8.002;2024-01-16T05:06:26;9.73;;;7.17;;
20423;SDS011;10371;49.042;8.002;2024-01-16T05:07:26;8.30;;;7.10;;
20423;SDS011;10371;49.042;8.002;2024-01-16T05:08:26;9.50;;;7.60;;
20423;SDS011;10371;49.042;8.002;2024-01-16T05:09:26;9.40;;;7.17;;
20423;SDS011;10371;49.042;8.002;2024-01-16T05:10:27;9.10;;;7.37;;
20423;SDS011;10371;49.042;8.002;2024-01-16T05:11:27;10.43;;;8.07;;
20423;SDS011;10371;49.042;8.002;2024-01-16T05:12:27;11.13;;;8.63;;
20423;SDS011;10371;49.042;8.002;2024-01-16T05:13:28;10.17;;;8.80;;
20423;SDS011;10371;49.042;8.002;2024-01-16T05:14:28;12.13;;;9.67;;
20423;SDS011;10371;49.042;8.002;2024-01-16T05:15:28;12.17;;;9.60;;
20423;SDS011;10371;49.042;8.002;2024-01-16T05:16:28;10.77;;;8.67;;
20423;SDS011;10371;49.042;8.002;2024-01-16T05:17:29;9.63;;;8.50;;
20423;SDS011;10371;49.042;8.002;2024-01-16T05:18:29;9.67;;;8.37;;
20423;SDS011;10371;49.042;8.002;2024-01-16T05:19:29;10.23;;;8.27;;
20423;SDS011;10371;49.042;8.002;2024-01-16T05:20:29;8.73;;;7.23;;
20423;SDS011;10371;49.042;8.002;2024-01-16T05:21:30;10.30;;;7.77;;
20423;SDS011;10371;49.042;8.002;2024-01-16T05:22:30;11.30;;;6.93;;
20423;SDS011;10371;49.042;8.002;2024-01-16T05:23:30;10.43;;;7.70;;
20423;SDS011;10371;49.042;8.002;2024-01-16T05:24:31;9.67;;;7.40;;
20423;SDS011;10371;49.042;8.002;2024-01-16T05:25:31;8.73;;;7.00;;
20423;SDS011;10371;49.042;8.002;2024-01-16T05:26:31;8.97;;;7.07;;
20423;SDS011;10371;49.042;8.002;2024-01-16T05:27:31;8.63;;;7.37;;
20423;SDS011;10371;49.042;8.002;2024-01-16T05:28:32;9.77;;;7.07;;
20423;SDS011;10371;49.042;8.002;2024-01-16T05:29:32;8.53;;;7.73;;
20423;SDS011;10371;49.042;8.002;2024-01-16T05:30:32;8.90;;;8.00;;
20423;SDS011;10371;49.042;8.002;2024-01-16T05:31:38;9.97;;;8.40;;
20423;SDS011;10371;49.042;8.002;2024-01-16T05:32:39;9.73;;;7.67;;
20423;SDS011;10371;49.042;8.002;2024-01-16T05:33:41;9.83;;;7.60;;
20423;SDS011;10371;49.042;8.002;2024-01-16T05:34:41;8.40;;;7.60;;
20423;SDS011;10371;49.042;8.002;2024-01-16T05:35:41;8.80;;;7.63;;
20423;SDS011;10371;49.042;8.002;2024-01-16T05:36:42;8.27;;;7.47;;
20423;SDS011;10371;49.042;8.002;2024-01-16T05:37:42;11.40;;;8.03;;
20423;SDS011;10371;49.042;8.002;2024-01-16T05:38:42;9.17;;;8.13;;
20423;SDS011;10371;49.042;8.002;2024-01-16T05:39:43;10.47;;;8.50;;
20423;SDS011;10371;49.042;8.002;2024-01-16T05:40:44;9.33;;;7.93;;
20423;SDS011;10371;49.042;8.002;2024-01-16T05:41:44;10.40;;;8.07;;
20423;SDS011;10371;49.042;8.002;2024-01-16T05:42:44;9.07;;;7.70;;
20423;SDS011;10371;49.042;8.002;2024-01-16T05:43:45;10.33;;;7.77;;
20423;SDS011;10371;49.042;8.002;2024-01-16T05:44:45;9.73;;;7.83;;
20423;SDS011;10371;49.042;8.002;2024-01-16T05:45:46;9.60;;;7.73;;
20423;SDS011;10371;49.042;8.002;2024-01-16T05:46:46;11.57;;;8.50;;
20423;SDS011;10371;49.042;8.002;2024-01-16T05:47:46;9.33;;;7.83;;
20423;SDS011;10371;49.042;8.002;2024-01-16T05:48:46;10.40;;;8.20;;
20423;SDS011;10371;49.042;8.002;2024-01-16T05:49:47;10.57;;;8.23;;
20423;SDS011;10371;49.042;8.002;2024-01-16T05:50:47;10.40;;;8.80;;
20423;SDS011;10371;49.042;8.002;2024-01-16T05:51:47;9.20;;;7.97;;
20423;SDS011;10371;49.042;8.002;2024-01-16T05:52:48;9.70;;;7.90;;
20423;SDS011;10371;49.042;8.002;2024-01-16T05:53:48;9.93;;;7.90;;
20423;SDS011;10371;49.042;8.002;2024-01-16T05:54:48;10.23;;;8.57;;
20423;SDS011;10371;49.042;8.002;2024-01-16T05:55:49;10.60;;;7.87;;
20423;SDS011;10371;49.042;8.002;2024-01-16T05:56:49;10.27;;;8.17;;
20423;SDS011;10371;49.042;8.002;2024-01-16T05:57:50;9.93;;;8.33;;
20423;SDS011;10371;49.042;8.002;2024-01-16T05:58:50;9.90;;;8.43;;
20423;SDS011;10371;49.042;8.002;2024-01-16T05:59:52;9.47;;;8.47;;
20423;SDS011;10371;49.042;8.002;2024-01-16T06:00:52;11.63;;;9.23;;
20423;SDS011;10371;49.042;8.002;2024-01-16T06:01:52;10.30;;;9.20;;
20423;SDS011;10371;49.042;8.002;2024-01-16T06:02:53;10.20;;;8.77;;
20423;SDS011;10371;49.042;8.002;2024-01-16T06:03:53;13.63;;;9.60;;
20423;SDS011;10371;49.042;8.002;2024-01-16T06:04:53;12.90;;;8.60;;